Terminal Aerodrome Forecast
Issued by NWS Louisville, KY

Home | Current Version | Previous Version | Text Only | Print | Product List | Glossary On
Versions: 1 2 3 4 5 6 7 8 9 10 11 12 13 14 15 16 17 18
000
FTUS43 KLMK 152330
TAFBWG
TAF
KBWG 152330Z 1600/1624 33012KT P6SM BKN015
     FM160300 34006KT P6SM SCT015 SCT150
     FM160600 35005KT P6SM BKN025
     FM161500 01007KT P6SM SCT030=

USA.gov is the U.S. government's official web portal to all federal, state and local government web resources and services.